Time;durP1;ratioP1;P1;durP2;ratioP2;P2;SDS_P1;SDS_P2;PMS_P1;PMS_P2;Temp;Humidity;BMP_temperature;BMP_pressure;BME280_temperature;BME280_humidity;BME280_pressure;Samples;Min_cycle;Max_cycle;Signal;HPM_P1;HPM_P2
2022/02/11 00:07:19;;;;;;;6.17;4.40;;;6.90;74.10;;;7.14;59.76;98024.91;4969031;28;20050;-34
2022/02/11 00:09:47;;;;;;;7.47;4.67;;;6.90;74.10;;;7.09;59.85;98025.28;4968296;28;20055;-34
2022/02/11 00:12:15;;;;;;;6.67;4.67;;;6.90;74.20;;;7.11;59.60;98011.91;4968932;28;20360;-34
2022/02/11 00:15:37;;;;;;;7.30;4.60;;;6.90;74.10;;;7.10;59.71;98015.53;4967128;28;20058;-34
2022/02/11 00:17:31;;;;;;;8.33;5.17;;;6.90;74.10;;;7.05;59.72;98020.38;4965555;28;20394;-34
2022/02/11 00:19:59;;;;;;;8.97;5.07;;;6.80;74.30;;;6.95;60.25;98027.41;4968478;28;20050;-34
2022/02/11 00:22:27;;;;;;;8.13;4.40;;;6.80;74.70;;;6.93;60.14;98032.84;4967486;28;20052;-34
2022/02/11 00:24:55;;;;;;;7.07;5.20;;;6.70;74.80;;;6.81;60.55;98045.28;4968668;28;20058;-34
2022/02/11 00:32:35;;;;;;;8.83;4.83;;;6.50;76.00;;;6.63;61.44;98017.69;4967536;28;20311;-34
2022/02/11 00:35:14;;;;;;;7.73;4.47;;;6.50;76.20;;;6.60;61.88;98020.63;4969397;28;20047;-34
2022/02/11 00:37:42;;;;;;;8.07;4.87;;;6.50;76.50;;;6.60;61.08;98024.09;4967219;28;20268;-34
2022/02/11 01:04:31;;;;;;;6.93;4.70;;;6.10;77.80;;;6.10;62.23;98015.84;4968018;28;20054;-34
2022/02/11 01:06:59;;;;;;;5.60;4.40;;;6.10;77.20;;;6.18;61.92;98033.72;4966497;28;20047;-34
2022/02/11 01:09:27;;;;;;;7.67;4.50;;;6.20;76.10;;;6.15;61.62;98029.53;4967234;28;20345;-34
2022/02/11 01:11:58;;;;;;;9.97;5.00;;;6.20;75.50;;;6.26;60.78;98018.94;4967002;28;20356;-34
2022/02/11 01:14:37;;;;;;;6.70;4.57;;;6.30;74.60;;;6.34;60.35;98009.50;4967077;28;20383;-34
2022/02/11 01:17:14;;;;;;;7.90;4.90;;;6.40;73.40;;;6.36;60.76;98008.44;4968138;28;20092;-34
2022/02/11 01:32:53;;;;;;;7.30;3.87;;;6.30;72.30;;;6.48;58.93;97994.19;4968157;28;20043;-33
2022/02/11 01:53:50;;;;;;;5.70;3.70;;;6.10;76.20;;;5.98;62.59;98015.03;4971148;28;20054;-34
2022/02/11 01:56:36;;;;;;;5.53;3.63;;;6.00;77.70;;;6.01;62.75;98012.16;4970694;28;20065;-36
2022/02/11 02:00:08;;;;;;;5.97;4.70;;;5.90;79.30;;;6.03;62.60;98012.88;4970149;28;20042;-35
2022/02/11 02:23:51;;;;;;;6.97;4.57;;;5.60;86.80;;;5.69;66.00;98012.88;4970001;28;20073;-34
2022/02/11 02:58:11;;;;;;;5.07;3.73;;;4.80;99.90;;;4.68;72.08;98044.41;4968241;28;20054;-34
2022/02/11 03:54:12;;;;;;;3.00;1.97;;;2.90;99.90;;;3.07;73.46;98186.47;4968786;28;20039;-33
2022/02/11 03:57:10;;;;;;;2.70;1.83;;;2.90;99.90;;;2.93;73.63;98197.91;4968645;28;20252;-33
2022/02/11 04:55:04;;;;;;;4.07;3.43;;;2.80;99.90;;;3.13;73.51;98308.88;4968040;28;20046;-36
2022/02/11 05:00:20;;;;;;;4.07;2.33;;;2.90;99.90;;;2.91;73.99;98320.78;4967335;28;20376;-35
2022/02/11 05:02:49;;;;;;;6.00;3.20;;;2.70;99.90;;;2.98;73.78;98328.28;4967365;28;20490;-35
2022/02/11 05:05:17;;;;;;;4.43;3.30;;;2.70;99.90;;;3.02;73.33;98330.59;4967605;28;20050;-35
2022/02/11 05:07:45;;;;;;;4.83;3.40;;;2.80;99.90;;;3.14;72.91;98340.38;4967964;28;20046;-35
2022/02/11 05:10:14;;;;;;;4.10;2.90;;;2.90;99.90;;;3.10;73.42;98338.00;4967062;28;20065;-36
2022/02/11 05:12:43;;;;;;;4.87;3.50;;;2.90;99.90;;;3.22;72.90;98347.78;4967401;28;20241;-35
2022/02/11 05:15:12;;;;;;;3.87;2.73;;;2.90;99.90;;;3.31;73.03;98355.06;4970340;28;20065;-36
2022/02/11 05:17:50;;;;;;;3.90;2.57;;;3.10;99.90;;;3.20;73.23;98351.44;4971373;28;20061;-35
2022/02/11 05:20:19;;;;;;;4.20;2.73;;;2.90;99.90;;;3.29;73.33;98362.22;4970353;28;20348;-35
2022/02/11 05:22:47;;;;;;;3.27;2.30;;;3.10;99.90;;;3.29;73.30;98362.22;4971109;28;20243;-35
2022/02/11 05:25:15;;;;;;;4.50;3.50;;;3.10;99.90;;;3.24;73.35;98366.94;4970480;28;20063;-35
2022/02/11 05:27:43;;;;;;;3.97;2.60;;;3.00;99.90;;;3.27;73.16;98365.88;4971319;28;20051;-36
2022/02/11 05:30:12;;;;;;;5.10;3.23;;;3.00;99.90;;;3.35;72.94;98360.97;4971780;28;20057;-35
2022/02/11 05:32:40;;;;;;;4.07;2.57;;;3.00;99.90;;;3.37;72.71;98364.34;4971153;28;20062;-35
2022/02/11 05:35:09;;;;;;;3.77;2.53;;;3.10;99.90;;;3.31;73.39;98376.13;4971330;28;20255;-35
2022/02/11 05:37:37;;;;;;;3.23;2.40;;;3.10;99.90;;;3.21;73.15;98375.03;4971340;28;20055;-36
2022/02/11 05:40:06;;;;;;;4.00;3.10;;;2.90;99.90;;;3.26;72.88;98380.00;4971524;28;20217;-36
2022/02/11 05:42:34;;;;;;;3.97;2.30;;;2.90;99.90;;;3.14;73.51;98382.47;4971103;28;20050;-36
2022/02/11 05:45:03;;;;;;;3.97;2.80;;;2.90;99.90;;;3.14;72.96;98386.88;4970985;28;20069;-35
2022/02/11 05:47:31;;;;;;;4.53;2.70;;;2.90;99.90;;;3.10;73.40;98391.50;4972403;28;20069;-35
2022/02/11 05:50:03;;;;;;;3.53;2.63;;;2.90;99.90;;;3.15;74.02;98388.56;4970707;28;20064;-35
2022/02/11 05:52:51;;;;;;;5.90;3.90;;;2.90;99.90;;;3.13;73.79;98395.72;4971092;28;20287;-35
2022/02/11 05:55:19;;;;;;;4.13;3.07;;;2.90;99.90;;;3.24;73.26;98401.16;4985730;28;20241;-35
2022/02/11 05:57:47;;;;;;;4.27;2.83;;;3.00;99.90;;;3.25;73.18;98408.09;4971884;28;20118;-35
2022/02/11 06:00:16;;;;;;;4.03;2.57;;;3.00;99.90;;;3.12;73.27;98405.41;4970459;28;20065;-35
2022/02/11 06:02:44;;;;;;;5.27;3.03;;;2.80;99.90;;;3.25;72.56;98418.63;4970519;28;20358;-36
2022/02/11 06:05:16;;;;;;;5.43;3.73;;;2.90;99.90;;;3.18;72.79;98427.00;4971613;28;20221;-36
2022/02/11 06:07:45;;;;;;;4.90;3.03;;;2.80;99.90;;;3.15;72.69;98420.16;4970863;28;20061;-36
2022/02/11 06:10:14;;;;;;;5.10;3.37;;;2.80;99.90;;;3.02;72.80;98424.47;4971695;28;20077;-36
2022/02/11 06:12:42;;;;;;;4.00;2.90;;;2.70;99.90;;;3.09;72.41;98431.06;4970160;28;20063;-35
2022/02/11 06:15:10;;;;;;;7.30;3.23;;;2.70;99.90;;;3.09;72.44;98433.69;4970322;28;20378;-36
2022/02/11 06:17:38;;;;;;;6.20;2.63;;;2.70;99.90;;;3.06;72.22;98436.50;4970577;28;20055;-35
2022/02/11 06:20:08;;;;;;;5.17;2.80;;;2.70;99.90;;;2.94;72.38;98441.56;4970310;28;20345;-35
2022/02/11 06:22:36;;;;;;;4.70;3.20;;;2.70;99.90;;;3.01;71.99;98439.41;4969573;28;20047;-35
2022/02/11 06:25:05;;;;;;;5.40;3.07;;;2.70;99.90;;;3.08;71.99;98446.00;4969493;28;20214;-35
2022/02/11 06:27:33;;;;;;;5.10;3.40;;;2.70;99.90;;;3.03;72.08;98463.00;4970850;28;20066;-35
2022/02/11 06:30:02;;;;;;;4.43;3.13;;;2.70;99.90;;;2.98;72.12;98462.44;4969387;28;20065;-35
2022/02/11 06:32:30;;;;;;;4.53;3.03;;;2.70;99.90;;;2.95;72.26;98458.22;4969146;28;20058;-36
2022/02/11 06:34:58;;;;;;;9.37;5.07;;;2.60;99.90;;;2.92;72.10;98468.91;4970618;28;20054;-35
2022/02/11 06:37:28;;;;;;;5.93;3.53;;;2.60;99.90;;;2.83;72.09;98478.22;4970157;28;20051;-35
2022/02/11 06:39:56;;;;;;;5.57;3.03;;;2.50;99.90;;;2.76;72.53;98479.50;4969354;28;20054;-35
2022/02/11 06:42:24;;;;;;;6.80;3.50;;;2.50;99.90;;;2.66;72.48;98484.47;4968537;28;20061;-35
2022/02/11 06:44:54;;;;;;;5.10;3.67;;;2.40;99.90;;;2.67;72.79;98480.91;4967929;28;20069;-35
2022/02/11 06:47:22;;;;;;;5.40;3.07;;;2.40;99.90;;;2.79;72.31;98491.63;4970039;28;20046;-36
2022/02/11 06:49:52;;;;;;;6.90;3.90;;;2.50;99.90;;;2.80;72.20;98490.69;4969265;28;20065;-35
2022/02/11 06:52:20;;;;;;;5.80;3.60;;;2.50;99.90;;;2.75;72.60;98504.97;4969085;28;20062;-36
2022/02/11 06:54:48;;;;;;;6.57;4.50;;;2.50;99.90;;;2.73;72.33;98517.38;4968900;28;20588;-36
2022/02/11 06:57:17;;;;;;;6.60;4.03;;;2.40;99.90;;;2.67;72.99;98524.75;4970062;28;20380;-36
2022/02/11 06:59:45;;;;;;;7.67;3.77;;;2.40;99.90;;;2.62;72.48;98526.78;4969924;28;20046;-36
2022/02/11 07:02:19;;;;;;;8.40;4.33;;;2.30;99.90;;;2.60;72.84;98542.69;4968484;28;20363;-36
2022/02/11 07:04:47;;;;;;;6.50;3.60;;;2.30;99.90;;;2.61;73.14;98539.09;4969535;28;20055;-36
2022/02/11 07:07:15;;;;;;;6.13;4.40;;;2.40;99.90;;;2.66;72.89;98544.94;4970406;28;20065;-36
2022/02/11 07:09:43;;;;;;;5.47;3.57;;;2.40;99.90;;;2.65;73.08;98552.91;4967857;28;20061;-36
2022/02/11 07:12:11;;;;;;;5.67;3.80;;;2.40;99.90;;;2.61;73.24;98556.66;4969332;28;20047;-35
2022/02/11 07:14:39;;;;;;;6.23;3.20;;;2.40;99.90;;;2.54;73.08;98558.81;4969689;28;20401;-36
2022/02/11 07:17:09;;;;;;;5.23;3.73;;;2.40;99.90;;;2.49;73.15;98558.22;4969624;28;20069;-36
2022/02/11 07:19:40;;;;;;;6.37;4.77;;;2.30;99.90;;;2.56;73.00;98564.84;4967126;28;20268;-36
2022/02/11 07:22:09;;;;;;;9.20;5.37;;;2.40;99.90;;;2.54;72.71;98574.59;4968394;28;20058;-35
2022/02/11 07:24:37;;;;;;;6.83;4.97;;;2.40;99.90;;;2.46;73.20;98575.03;4969211;28;20063;-36
2022/02/11 07:27:05;;;;;;;8.40;4.50;;;2.30;99.90;;;2.44;73.34;98581.28;4971015;28;20089;-36
2022/02/11 07:29:33;;;;;;;10.57;5.37;;;2.30;99.90;;;2.28;73.99;98594.44;4968855;28;20050;-36
2022/02/11 07:32:03;;;;;;;6.77;4.30;;;2.10;99.90;;;2.41;73.26;98613.84;4969305;28;20058;-36
2022/02/11 07:34:31;;;;;;;7.33;3.80;;;2.20;99.90;;;2.39;73.27;98613.09;4968807;28;20042;-36
2022/02/11 07:36:59;;;;;;;7.63;4.10;;;2.20;99.90;;;2.35;73.41;98620.31;4968598;28;20038;-36
2022/02/11 07:39:48;;;;;;;5.37;4.27;;;2.20;99.90;;;2.46;73.09;98624.97;4968289;28;20084;-35
2022/02/11 07:42:16;;;;;;;5.13;3.53;;;2.30;99.90;;;2.52;73.58;98632.50;4968617;28;20792;-36
2022/02/11 07:44:44;;;;;;;7.47;3.47;;;2.40;99.90;;;2.58;72.97;98638.34;4969676;28;20061;-35
2022/02/11 07:47:13;;;;;;;5.30;3.00;;;2.40;99.90;;;2.57;73.27;98648.00;4968820;28;20348;-35
2022/02/11 07:49:41;;;;;;;6.33;3.53;;;2.40;99.90;;;2.62;72.61;98650.38;4969143;28;20082;-36
2022/02/11 07:52:09;;;;;;;5.97;3.20;;;2.50;99.90;;;2.56;72.94;98660.31;4964960;28;20062;-36
2022/02/11 07:54:38;;;;;;;5.57;3.43;;;2.50;99.90;;;2.55;73.01;98657.75;4968730;28;20065;-35
2022/02/11 07:57:06;;;;;;;8.97;3.67;;;2.50;99.90;;;2.50;72.73;98665.91;4969288;28;20047;-35
2022/02/11 07:59:39;;;;;;;6.60;3.20;;;2.40;99.90;;;2.54;73.09;98683.22;4968266;28;20077;-35
2022/02/11 08:02:08;;;;;;;5.53;3.37;;;2.50;99.90;;;2.54;72.64;98691.09;4983671;28;20050;-35
2022/02/11 08:04:36;;;;;;;5.40;2.90;;;2.40;99.90;;;2.55;72.91;98690.16;4966771;28;20070;-36
2022/02/11 08:07:04;;;;;;;5.67;3.80;;;2.50;99.90;;;2.63;72.72;98694.97;4968819;28;20754;-35
2022/02/11 08:09:32;;;;;;;6.83;4.17;;;2.60;99.90;;;2.64;72.54;98701.09;4968816;28;20062;-35
2022/02/11 08:12:00;;;;;;;5.67;3.40;;;2.50;99.90;;;2.67;72.86;98700.91;4968240;28;20055;-35
2022/02/11 08:14:30;;;;;;;5.70;3.40;;;2.60;99.90;;;2.74;72.83;98705.75;4968276;28;20057;-35
2022/02/11 08:16:58;;;;;;;5.77;3.33;;;2.60;99.90;;;2.73;72.68;98713.72;4967442;28;20054;-35
2022/02/11 08:19:26;;;;;;;5.17;3.60;;;2.70;99.90;;;2.73;72.00;98704.06;4967426;28;20055;-35
2022/02/11 08:21:54;;;;;;;5.93;3.43;;;2.70;99.90;;;2.85;72.33;98710.41;4968130;28;20058;-35
2022/02/11 08:24:22;;;;;;;7.90;2.90;;;2.80;99.90;;;2.79;71.66;98723.06;4983299;28;20065;-35
2022/02/11 08:26:51;;;;;;;7.13;3.30;;;2.70;99.90;;;2.81;71.56;98724.69;4966996;28;20059;-35
2022/02/11 08:29:25;;;;;;;5.00;3.23;;;2.80;99.90;;;2.80;71.57;98717.72;4966964;28;20062;-36
2022/02/11 08:31:54;;;;;;;7.00;3.83;;;2.80;99.90;;;2.95;71.39;98719.47;4967769;28;20238;-35
2022/02/11 08:34:23;;;;;;;5.40;3.00;;;2.80;99.90;;;3.02;71.44;98713.88;4968434;28;20069;-35
2022/02/11 08:36:51;;;;;;;6.20;3.63;;;2.90;99.90;;;3.05;70.75;98706.66;4968275;28;20058;-35
2022/02/11 08:39:20;;;;;;;7.63;3.40;;;3.00;99.90;;;3.16;71.06;98724.47;4968190;28;20062;-35
2022/02/11 08:41:48;;;;;;;6.20;3.40;;;3.10;99.90;;;3.15;70.55;98755.16;4982681;28;20064;-35
2022/02/11 08:44:17;;;;;;;6.83;3.60;;;3.10;99.90;;;3.22;71.04;98760.94;4967940;28;20054;-35
2022/02/11 08:46:45;;;;;;;8.73;3.57;;;3.10;99.90;;;3.28;70.53;98757.13;4967818;28;20064;-35
2022/02/11 08:49:14;;;;;;;6.40;3.50;;;3.20;99.90;;;3.38;70.45;98754.81;4965692;28;20064;-35
2022/02/11 08:51:42;;;;;;;6.03;3.67;;;3.20;99.90;;;3.46;70.36;98765.72;4968040;28;20072;-35
2022/02/11 08:54:10;;;;;;;5.33;3.30;;;3.40;99.90;;;3.47;69.76;98768.28;4967028;28;20352;-36
2022/02/11 08:56:39;;;;;;;7.30;3.40;;;3.40;99.90;;;3.42;69.29;98780.00;4967065;28;20248;-36
2022/02/11 08:59:08;;;;;;;5.37;3.27;;;3.40;99.90;;;3.49;69.80;98789.22;4964449;28;20061;-36
2022/02/11 09:01:36;;;;;;;6.47;2.97;;;3.40;99.90;;;3.53;69.31;98790.78;4957611;28;20252;-36
2022/02/11 09:04:04;;;;;;;7.57;3.63;;;3.40;99.90;;;3.49;68.72;98798.00;4955283;28;20391;-36
2022/02/11 09:06:32;;;;;;;6.67;3.50;;;3.40;99.90;;;3.54;68.96;98808.25;4958683;28;20268;-36
2022/02/11 09:09:04;;;;;;;4.00;2.63;;;3.40;99.90;;;3.46;67.54;98816.59;4958380;28;20435;-36
2022/02/11 09:11:32;;;;;;;7.37;2.90;;;3.40;99.90;;;3.37;66.32;98827.66;4962209;28;20043;-36
2022/02/11 09:14:02;;;;;;;6.13;3.53;;;3.30;99.90;;;3.47;67.85;98833.22;4959014;28;20058;-36
2022/02/11 09:16:30;;;;;;;4.30;2.90;;;3.40;99.90;;;3.60;68.44;98826.31;4955157;28;20217;-36
2022/02/11 09:18:59;;;;;;;5.83;2.97;;;3.50;99.90;;;3.70;67.77;98835.41;4956133;28;20440;-36
2022/02/11 09:21:27;;;;;;;5.97;2.73;;;3.60;99.90;;;3.80;67.90;98835.72;4967838;28;20053;-36
2022/02/11 09:23:56;;;;;;;4.23;2.80;;;3.70;99.90;;;3.83;67.81;98832.06;4966342;28;20047;-36
2022/02/11 09:26:24;;;;;;;4.37;2.93;;;3.80;99.90;;;3.86;66.80;98840.63;4966800;28;20053;-36
2022/02/11 09:28:52;;;;;;;8.83;3.00;;;3.80;99.90;;;3.82;66.14;98847.03;4967508;28;20269;-36
2022/02/11 09:31:26;;;;;;;3.97;2.50;;;3.80;99.90;;;3.79;66.73;98844.56;4966108;28;20051;-36
2022/02/11 09:34:03;;;;;;;6.10;2.70;;;3.80;99.90;;;3.81;65.09;98840.03;4966338;28;20054;-36
2022/02/11 09:36:35;;;;;;;4.57;2.93;;;3.90;99.90;;;3.79;65.14;98860.34;4967730;28;20378;-36
2022/02/11 09:39:09;;;;;;;4.47;2.60;;;3.90;99.90;;;3.84;65.01;98846.91;4967462;28;20237;-36
2022/02/11 09:41:38;;;;;;;5.32;2.33;;;3.90;99.90;;;3.83;64.62;98850.50;4967558;28;20109;-36
2022/02/11 09:44:07;;;;;;;3.07;2.10;;;4.00;99.90;;;3.85;64.54;98841.56;4967738;28;20352;-36
2022/02/11 09:46:38;;;;;;;4.17;2.20;;;4.00;99.90;;;3.92;65.02;98840.28;4966398;28;20063;-36
2022/02/11 09:49:07;;;;;;;4.63;2.50;;;4.00;99.90;;;3.92;64.00;98847.34;4965645;28;20047;-36
2022/02/11 09:51:35;;;;;;;5.13;2.23;;;4.00;99.90;;;3.80;63.35;98850.66;4967013;28;20053;-36
2022/02/11 09:54:03;;;;;;;4.70;2.50;;;3.90;99.60;;;3.91;64.02;98841.19;4967082;28;20253;-36
2022/02/11 09:56:31;;;;;;;6.77;2.53;;;4.00;99.90;;;4.03;64.01;98852.81;4966472;28;20275;-36
2022/02/11 09:59:07;;;;;;;5.30;2.43;;;4.10;99.90;;;4.03;62.99;98854.59;4967610;28;20054;-36
2022/02/11 10:01:40;;;;;;;6.30;2.70;;;4.10;98.80;;;3.94;62.89;98856.00;4969125;28;20057;-36
2022/02/11 10:04:18;;;;;;;7.33;2.77;;;4.10;92.10;;;3.93;63.64;98862.19;4968598;28;20051;-36
2022/02/11 10:06:48;;;;;;;5.97;3.47;;;4.00;93.20;;;3.89;64.04;98863.31;4969832;28;20051;-36
2022/02/11 10:09:21;;;;;;;4.57;2.40;;;4.00;94.00;;;3.86;62.86;98880.16;4969924;28;20112;-36
2022/02/11 10:11:52;;;;;;;5.20;2.20;;;4.00;91.40;;;3.96;64.10;98885.75;4971063;28;20050;-36
2022/02/11 10:14:33;;;;;;;4.23;3.07;;;4.00;92.90;;;4.10;63.37;98879.66;4972388;28;20050;-36
2022/02/11 10:17:04;;;;;;;4.23;2.77;;;4.10;93.40;;;4.18;64.26;98887.94;4969562;28;20039;-36
2022/02/11 10:19:38;;;;;;;10.33;3.00;;;4.20;95.00;;;4.19;63.15;98878.25;4970810;28;20046;-36
2022/02/11 10:22:15;;;;;;;5.80;3.10;;;4.20;89.70;;;4.12;63.45;98897.06;4970275;28;20059;-36
2022/02/11 10:24:47;;;;;;;4.93;2.03;;;4.20;89.40;;;4.23;63.35;98898.25;4970171;28;20256;-36
2022/02/11 10:27:24;;;;;;;5.20;3.00;;;4.30;90.40;;;4.26;63.17;98896.25;4970870;28;20264;-36
2022/02/11 10:30:04;;;;;;;6.17;2.60;;;4.30;89.50;;;4.26;62.29;98898.88;4969690;28;20069;-36
2022/02/11 10:32:46;;;;;;;4.17;2.63;;;4.40;87.50;;;4.17;62.54;98907.34;4969345;28;20059;-36
2022/02/11 10:35:26;;;;;;;5.10;2.60;;;4.30;86.80;;;4.13;62.31;98919.84;4971322;28;20053;-36
2022/02/11 10:38:15;;;;;;;10.40;3.97;;;4.20;86.40;;;4.08;62.14;98928.97;4969261;28;20045;-36
2022/02/11 10:40:45;;;;;;;5.90;3.00;;;4.20;84.40;;;4.05;63.12;98914.19;4969611;28;20222;-36
2022/02/11 10:43:29;;;;;;;7.23;3.07;;;4.20;86.70;;;4.13;62.60;98924.28;4969204;28;20061;-36
2022/02/11 10:46:01;;;;;;;9.30;3.77;;;4.30;85.50;;;4.28;63.64;98919.88;4969239;28;20243;-36
2022/02/11 10:48:37;;;;;;;9.23;3.80;;;4.50;86.70;;;4.44;62.68;98919.81;4969250;28;20063;-36
2022/02/11 10:51:07;;;;;;;7.07;2.70;;;4.60;85.30;;;4.62;62.79;98928.44;4969577;28;20069;-36
2022/02/11 10:53:37;;;;;;;6.17;3.10;;;4.80;84.30;;;4.82;62.95;98914.03;4966814;28;20050;-36
2022/02/11 10:56:06;;;;;;;7.00;3.17;;;5.00;85.40;;;4.91;61.72;98916.94;4969355;28;20065;-36
2022/02/11 10:58:34;;;;;;;5.00;2.80;;;5.20;81.70;;;4.91;60.69;98902.91;4968815;28;20042;-36
2022/02/11 11:01:05;;;;;;;4.80;2.47;;;5.20;78.50;;;4.90;60.76;98914.41;4969892;28;20454;-36
2022/02/11 11:03:34;;;;;;;4.10;2.77;;;5.20;79.20;;;4.99;60.53;98916.47;4967401;28;20058;-36
2022/02/11 11:06:08;;;;;;;4.03;2.57;;;5.30;77.50;;;4.97;59.86;98912.25;4969548;28;20069;-37
2022/02/11 11:08:39;;;;;;;7.05;3.38;;;5.20;77.60;;;5.03;60.48;98915.34;4969398;28;20065;-36
2022/02/11 11:11:10;;;;;;;4.43;2.67;;;5.20;78.30;;;5.04;59.85;98924.97;4968422;28;20118;-36
2022/02/11 11:13:42;;;;;;;4.33;2.50;;;5.20;76.90;;;4.85;59.97;98930.53;4967114;28;20065;-36
2022/02/11 11:16:14;;;;;;;4.67;2.97;;;4.90;77.80;;;4.95;60.15;98937.91;4969841;28;20348;-36
2022/02/11 11:18:44;;;;;;;6.27;3.13;;;5.00;77.60;;;4.68;59.46;98933.34;4969100;28;20554;-36
2022/02/11 11:21:13;;;;;;;8.73;2.90;;;4.80;76.70;;;4.68;60.50;98922.78;4968846;28;20535;-36
2022/02/11 11:23:56;;;;;;;6.07;2.80;;;4.70;78.30;;;4.66;60.16;98932.59;4968617;28;20047;-36
2022/02/11 11:26:41;;;;;;;6.03;3.33;;;4.60;78.80;;;4.51;61.17;98922.00;4968249;28;20063;-36
2022/02/11 11:29:18;;;;;;;6.40;3.30;;;4.50;80.00;;;4.49;61.11;98920.41;4969558;28;20065;-36
2022/02/11 11:31:58;;;;;;;6.37;2.60;;;4.50;80.80;;;4.65;61.11;98931.75;4967113;28;20055;-36
2022/02/11 11:34:28;;;;;;;4.73;2.60;;;4.70;79.50;;;4.72;61.48;98932.22;4968649;28;20382;-36
2022/02/11 11:37:11;;;;;;;4.47;3.03;;;4.80;78.80;;;4.72;60.34;98938.34;4969799;28;20360;-36
2022/02/11 11:39:40;;;;;;;6.87;2.93;;;4.90;78.00;;;4.82;59.97;98935.97;4968392;28;19932;-35
2022/02/11 11:42:15;;;;;;;8.30;2.67;;;5.00;76.40;;;4.83;60.10;98935.06;4966623;28;20043;-36
2022/02/11 11:44:46;;;;;;;6.13;2.93;;;5.10;75.60;;;4.79;59.16;98944.09;4968842;28;20063;-37
2022/02/11 11:47:27;;;;;;;8.20;3.80;;;5.00;73.40;;;4.81;59.21;98939.56;4969855;28;20060;-36
2022/02/11 11:49:58;;;;;;;4.37;2.80;;;5.00;73.50;;;5.03;59.82;98939.09;4968805;28;20341;-37
2022/02/11 11:52:51;;;;;;;4.43;2.80;;;5.20;74.10;;;5.10;58.19;98936.94;4968250;28;20093;-37
2022/02/11 11:55:24;;;;;;;5.82;3.88;;;5.20;71.90;;;5.07;58.40;98932.69;4968888;28;20051;-37
2022/02/11 11:57:53;;;;;;;4.77;3.07;;;5.20;72.70;;;5.07;58.14;98929.22;4967943;28;20376;-36
2022/02/11 12:00:39;;;;;;;3.80;2.30;;;5.20;72.60;;;5.24;58.71;98930.81;4967801;28;20253;-36
2022/02/11 12:03:10;;;;;;;3.90;2.73;;;5.40;72.50;;;5.20;58.19;98929.31;4968153;28;20270;-36
2022/02/11 12:05:53;;;;;;;7.60;2.70;;;5.30;72.60;;;5.24;58.69;98929.00;4967671;28;20253;-36
2022/02/11 12:08:28;;;;;;;6.73;2.67;;;5.30;73.30;;;5.34;58.64;98929.28;4967363;28;20353;-36
2022/02/11 12:10:57;;;;;;;5.27;2.73;;;5.50;73.60;;;5.38;58.73;98927.28;4967710;28;20376;-36
2022/02/11 12:13:26;;;;;;;6.43;3.90;;;5.50;73.50;;;5.43;58.79;98936.63;4967407;28;20062;-36
2022/02/11 12:15:54;;;;;;;9.67;3.97;;;5.50;73.70;;;5.53;58.93;98939.53;4968585;28;20563;-36
2022/02/11 12:18:25;;;;;;;7.70;2.73;;;5.60;72.40;;;5.53;58.79;98943.00;4968407;28;20043;-36
2022/02/11 12:20:53;;;;;;;6.93;3.10;;;5.60;73.00;;;5.37;57.22;98939.66;4967548;28;20058;-36
2022/02/11 12:28:57;;;;;;;3.83;2.40;;;5.50;70.90;;;5.27;56.38;98922.66;4969097;28;20059;-36
2022/02/11 12:31:25;;;;;;;4.93;2.30;;;5.30;69.80;;;5.27;56.62;98930.59;4966082;28;20076;-36
2022/02/11 12:34:16;;;;;;;4.27;2.70;;;5.30;69.40;;;5.23;57.33;98935.22;4967004;28;20349;-37
2022/02/11 12:36:45;;;;;;;5.50;2.33;;;5.30;70.50;;;5.09;57.03;98935.25;4968324;28;20062;-37
2022/02/11 12:39:38;;;;;;;3.87;2.53;;;5.10;70.20;;;5.23;57.83;98923.81;4967317;28;20055;-36
2022/02/11 12:42:06;;;;;;;5.97;2.80;;;5.20;72.30;;;5.16;57.25;98935.69;4966755;28;20069;-36
2022/02/11 12:44:41;;;;;;;4.57;2.37;;;5.10;70.90;;;5.06;56.99;98935.41;4967596;28;20046;-36
2022/02/11 12:47:10;;;;;;;6.03;2.90;;;5.10;69.80;;;5.09;57.30;98929.97;4969171;28;20055;-36
2022/02/11 12:49:47;;;;;;;5.17;2.30;;;5.10;69.90;;;5.02;57.81;98947.09;4966176;28;20055;-37
2022/02/11 12:52:28;;;;;;;6.87;3.43;;;5.00;70.50;;;4.86;57.64;98932.22;4967600;28;20046;-36
2022/02/11 12:55:06;;;;;;;5.37;3.50;;;4.90;71.10;;;4.86;57.32;98931.38;4967294;28;20070;-36
2022/02/11 12:57:35;;;;;;;5.13;3.60;;;4.80;71.40;;;4.92;58.22;98923.06;4967927;28;20050;-36
2022/02/11 13:00:07;;;;;;;5.00;3.13;;;4.80;72.20;;;4.96;58.10;98926.38;4967567;28;20336;-36
2022/02/11 13:02:37;;;;;;;6.37;3.37;;;4.90;71.90;;;4.78;58.54;98905.44;4966741;28;20046;-36
2022/02/11 13:05:24;;;;;;;5.63;2.70;;;4.80;71.60;;;4.75;58.28;98916.22;4968173;28;20069;-36
2022/02/11 13:07:58;;;;;;;6.93;3.00;;;4.80;71.80;;;4.67;58.40;98911.41;4966970;28;20069;-36
2022/02/11 13:10:28;;;;;;;;;;;4.90;71.20;;;4.74;58.42;98904.78;4969367;28;20244;-36
2022/02/11 13:13:00;;;;;;;3.73;2.60;;;4.90;71.30;;;4.82;58.29;98903.47;4966922;28;19933;-36
2022/02/11 13:15:31;;;;;;;4.37;2.60;;;5.00;71.50;;;4.84;58.77;98920.06;4968077;28;20059;-36
2022/02/11 13:18:17;;;;;;;4.70;2.63;;;5.00;71.60;;;4.98;58.41;98906.00;4968189;28;20063;-36
2022/02/11 13:20:50;;;;;;;4.77;2.53;;;5.10;72.10;;;5.00;58.57;98912.03;4967849;28;20371;-37
2022/02/11 13:23:24;;;;;;;4.57;2.43;;;5.20;70.40;;;5.16;57.77;98918.09;4967043;28;20375;-36
2022/02/11 13:25:55;;;;;;;6.38;2.25;;;5.30;70.10;;;5.04;56.60;98913.53;4967411;28;20474;-36
2022/02/11 13:28:27;;;;;;;6.03;2.47;;;5.20;67.70;;;4.99;57.62;98910.38;4967326;28;20050;-36
2022/02/11 13:31:02;;;;;;;4.53;2.50;;;5.20;69.20;;;5.09;56.95;98916.75;4967990;28;20367;-36
2022/02/11 13:33:35;;;;;;;6.07;2.97;;;5.30;69.00;;;5.12;57.08;98925.34;4967645;28;20514;-36
2022/02/11 13:36:09;;;;;;;5.07;2.30;;;5.30;68.20;;;5.18;56.19;98933.84;4970566;28;20053;-36
2022/02/11 13:38:40;;;;;;;4.47;2.28;;;5.40;67.70;;;5.30;57.45;98931.25;4970446;28;20068;-35
2022/02/11 13:41:11;;;;;;;3.37;2.27;;;5.50;68.50;;;5.20;56.87;98939.88;4965527;28;20057;-35
2022/02/11 13:43:49;;;;;;;4.77;2.80;;;5.40;67.60;;;5.28;55.98;98930.50;4970258;28;20252;-35
2022/02/11 13:46:48;;;;;;;2.53;2.13;;;5.50;67.80;;;5.32;56.75;98934.66;4970995;28;20061;-35
2022/02/11 13:49:16;;;;;;;6.43;2.53;;;5.50;67.70;;;5.38;55.50;98943.13;4970291;28;20069;-36
2022/02/11 13:53:01;;;;;;;3.90;2.53;;;5.60;65.20;;;5.56;56.20;98941.13;4971149;28;20064;-36
2022/02/11 13:55:05;;;;;;;3.47;2.30;;;5.70;67.20;;;5.61;55.59;98939.03;4969033;28;20256;-35
2022/02/11 13:57:37;;;;;;;6.03;2.77;;;5.80;65.50;;;5.68;56.12;98945.59;4970426;28;20063;-35
2022/02/11 14:00:41;;;;;;;8.57;2.30;;;5.80;66.30;;;5.81;55.76;98943.03;4970323;28;20048;-35
2022/02/11 14:03:25;;;;;;;4.88;2.42;;;6.00;65.00;;;5.63;54.28;98950.34;4968702;28;20491;-36
2022/02/11 14:06:00;;;;;;;2.58;1.85;;;5.80;64.00;;;5.53;53.49;98944.81;4970344;28;20317;-36
2022/02/11 14:08:46;;;;;;;5.13;2.30;;;5.70;63.90;;;5.50;54.40;98945.81;4968907;28;20286;-35
2022/02/11 14:11:20;;;;;;;4.53;3.43;;;5.60;64.60;;;5.41;54.27;98941.16;4969098;28;20248;-36
2022/02/11 14:13:49;;;;;;;3.07;2.27;;;5.50;63.70;;;5.40;54.63;98951.81;4969630;28;20264;-35
2022/02/11 14:16:18;;;;;;;4.43;2.23;;;5.50;65.10;;;5.38;53.59;98958.97;4970252;28;20088;-35
2022/02/11 14:18:46;;;;;;;3.77;2.43;;;5.50;63.40;;;5.48;55.14;98957.44;4970861;28;20061;-36
2022/02/11 14:21:17;;;;;;;5.87;3.00;;;5.60;65.60;;;5.68;55.33;98964.09;4969170;28;20065;-35
2022/02/11 14:23:45;;;;;;;3.77;2.77;;;5.80;66.30;;;5.75;55.18;98977.78;4970215;28;20053;-36
2022/02/11 14:26:14;;;;;;;3.93;3.20;;;5.90;65.40;;;5.89;55.29;98957.47;4969354;28;20126;-36
2022/02/11 14:28:42;;;;;;;3.10;1.90;;;6.10;66.40;;;5.83;53.50;98960.47;4971339;28;20054;-36
2022/02/11 14:31:10;;;;;;;4.67;2.10;;;6.00;62.10;;;5.99;55.03;98967.44;4968705;28;20057;-36
2022/02/11 14:33:38;;;;;;;5.10;2.73;;;6.20;64.40;;;6.13;53.88;98980.63;4969666;28;20061;-36
2022/02/11 14:36:06;;;;;;;6.00;2.67;;;6.40;62.00;;;6.21;54.23;98980.13;4970231;28;20352;-36
2022/02/11 14:38:34;;;;;;;4.93;1.87;;;6.40;63.00;;;6.33;53.73;98994.34;4969307;28;20051;-36
2022/02/11 14:43:49;;;;;;;4.13;2.17;;;6.40;60.60;;;6.14;51.52;98995.53;4969082;28;20059;-35
2022/02/11 14:46:17;;;;;;;4.03;1.90;;;6.30;59.20;;;6.05;51.82;99006.72;4967445;28;20233;-35
2022/02/11 14:48:45;;;;;;;6.77;3.07;;;6.20;60.00;;;6.20;53.47;98989.81;4970101;28;20073;-35
2022/02/11 14:51:13;;;;;;;4.97;2.37;;;6.40;63.00;;;6.36;52.48;98999.41;4970056;28;20281;-35
2022/02/11 14:53:41;;;;;;;4.83;2.80;;;6.50;61.70;;;6.47;53.22;98991.59;4959640;28;20043;-35